• Join FlightAware (Why Join?)
  • Login
  • US Flag 
07:15PM EDT


 

Airport Tracker/Info


-or-


 

Live Flight TrackerFlight Track Log ✈ UAL4695 ✈ 21-Apr-2013 ✈ KEWR - KMHT

Flight Track Log - Related Links

Times and Time Zones

All times are in EDT time to prevent confusion due to time zone crossing. See the UAL4695 flight status page for this flight to view local times or setup timezone preferences in your user account.

Time Position Orientation Groundspeed Altitude Reporting Facility
EDT Latitude Longitude Course Direction KTS MPH feet Rate Location/Type
09:26PM 40.7167 -74.1500 40° Northeast 159 183 1,400  Level New York TRACON
09:27PM 40.7500 -74.1167 37° Northeast 218 251 3,600 1,680 Climbing New York TRACON
09:28PM 40.8966 -73.9351 21° North  Level FlightAware Approximate
09:28PM 40.8206 -73.9925 53° Northeast 241 277 6,100  Level Boston Center
09:29PM 40.9630 -73.8536 37° Northeast  Level FlightAware Approximate
09:29PM 40.8361 -73.9022 77° East 236 272 8,900  Level Boston Center
09:30PM 41.0374 -73.7747 40° Northeast  Level FlightAware Approximate
09:30PM 40.8786 -73.8400 48° Northeast 248 285 9,900  Level Boston Center
09:31PM 41.1053 -73.6983 40° Northeast  Level FlightAware Approximate
09:31PM 40.9614 -73.7292 45° Northeast 307 353 9,900  Level Boston Center
09:32PM 41.0269 -73.6453 44° Northeast 340 391 10,000 900 Climbing Boston Center
09:33PM 41.0986 -73.5475 46° Northeast 345 397 11,800 2,160 Climbing Boston Center
09:34PM 41.1786 -73.4769 34° Northeast 345 397 14,400 1,980 Climbing Boston Center
09:35PM 41.2519 -73.4342 24° Northeast 345 397 15,800 1,800 Climbing Boston Center
09:36PM 41.3692 -73.3750 21° North 364 419 18,100 1,680 Climbing Boston Center
09:37PM 41.4694 -73.3183 23° Northeast 373 429 19,200 1,140 Climbing Boston Center
09:38PM 41.5181 -73.2636 40° Northeast 381 438 20,400 1,740 Climbing Boston Center
09:39PM 41.6478 -73.1764 27° Northeast 369 425 22,700 1,260 Climbing Boston Center
09:40PM 41.7603 -73.1886 355° North 369 425 23,000 120 Climbing Boston Center
09:41PM 41.8831 -73.2014 356° North 396 456 23,000  Level Boston Center
09:42PM 42.0081 -73.2139 356° North 434 499 23,000  Level Boston Center
09:43PM 42.1308 -73.2267 356° North 447 514 23,000  Level Boston Center
09:44PM 42.2497 -73.2394 355° North 441 507 23,000 -480 Level Boston Center
09:45PM 42.3647 -73.1764 22° Northeast 435 501 22,100 -1,020 Descending Boston Center
09:46PM 42.4406 -73.0394 53° Northeast 422 486 21,000 -1,080 Descending Boston Center
09:47PM 42.5078 -72.8964 57° Northeast 432 497 20,000 -900 Descending Boston Center
09:49PM 42.5875 -72.7333 56° Northeast 432 497 19,100 -780 Descending Boston Center
09:50PM 42.6442 -72.6150 57° Northeast 427 491 18,300 -1,440 Descending Boston Center
09:51PM 42.7047 -72.4881 57° Northeast 416 479 16,300 -2,040 Descending Boston Center
09:52PM 42.7631 -72.3636 57° Northeast 403 464 14,300 -1,860 Descending Boston Center
09:53PM 42.7961 -72.2392 70° East 364 419 12,600 -1,560 Descending Boston Center
09:54PM 42.8125 -72.1147 80° East 324 373 11,200 -1,500 Descending Boston Center
09:55PM 42.8436 -72.0239 65° Northeast 289 333 9,700 -1,440 Descending Boston Center
09:56PM 42.8764 -71.9272 65° Northeast 263 303 8,400 -1,260 Descending Boston Center
09:57PM 42.9033 -71.8506 64° Northeast 244 281 7,200 -1,320 Descending Boston Center
09:58PM 42.9381 -71.7567 63° Northeast 239 275 5,800 -1,440 Descending Boston Center
09:59PM 42.9647 -71.6825 64° Northeast 239 275 4,400 -1,380 Descending Boston Center
10:00PM 42.9933 -71.5969 65° Northeast 234 269 3,100 -1,020 Descending Boston Center
10:01PM 43.0117 -71.5344 68° East 211 243 2,400 -720 Descending Boston Center